Squirrel Island, Maine
Current Conditions -  °F | °C
As of 3:08 PM on Friday 24 Oct 2014 (Local Time) from KIWI Reporting Station
Overcast Overcast  
Wind Chill: 50°   Ceiling: 1600
Heat Index: 50°   Visibility: 10mi
Dew Point: 45°   Wind: 6mph
Humidity: 83%   Direction: NA
Pressure: 29.65"   Gusts: NA
Location:  43.8°N, 69.64°W
Report Text: KIWI 241908Z AUTO VRB05KT 10SM OVC016 10/07 A2965 RMK AO2 RAB1858E08 P0000 T01000072
Loading
Personal Weather Stations






























Interactive Weather Map
Tropical Storm Tracking
New forecast layout! Learn more

10-Day Weather Forecast

Advertisements
Track Severe Weather on mobile